Time;durP1;ratioP1;P1;durP2;ratioP2;P2;SDS_P1;SDS_P2;PMS_P1;PMS_P2;Temp;Humidity;BMP_temperature;BMP_pressure;BME280_temperature;BME280_humidity;BME280_pressure;Samples;Min_cycle;Max_cycle;Signal;HPM_P1;HPM_P2
2023/06/29 00:01:30;;;;;;;9.97;5.57;;;17.50;16.90;;;;;;5056347;28;20489;-72
2023/06/29 00:03:59;;;;;;;8.47;5.10;;;17.50;16.90;;;;;;5054897;28;20990;-72
2023/06/29 00:06:26;;;;;;;6.37;4.30;;;17.40;16.90;;;;;;5050925;28;20816;-72
2023/06/29 00:08:52;;;;;;;6.83;4.70;;;17.50;17.00;;;;;;5054080;28;20461;-72
2023/06/29 00:11:20;;;;;;;8.10;4.70;;;17.40;17.10;;;;;;5049902;28;20474;-72
2023/06/29 00:13:46;;;;;;;8.33;5.33;;;17.40;17.00;;;;;;5054028;28;20495;-72
2023/06/29 00:16:13;;;;;;;9.73;4.83;;;17.40;17.00;;;;;;5055205;28;20462;-72
2023/06/29 00:18:40;;;;;;;7.17;4.10;;;17.40;17.00;;;;;;5054823;28;20469;-72
2023/06/29 00:21:08;;;;;;;7.57;4.87;;;17.40;17.10;;;;;;5053651;28;20457;-72
2023/06/29 00:23:34;;;;;;;9.17;4.80;;;17.30;17.20;;;;;;5055762;28;20486;-72
2023/06/29 00:26:02;;;;;;;8.33;4.53;;;17.30;17.10;;;;;;5056373;28;20957;-71
2023/06/29 00:28:29;;;;;;;10.70;5.57;;;17.30;17.10;;;;;;5051560;28;20471;-72
2023/06/29 00:30:56;;;;;;;9.23;4.90;;;17.30;17.10;;;;;;5057462;28;20493;-72
2023/06/29 00:33:23;;;;;;;7.47;4.30;;;17.30;17.20;;;;;;5054430;28;20478;-72
2023/06/29 00:35:50;;;;;;;10.50;4.73;;;17.30;17.20;;;;;;5052927;28;20466;-72
2023/06/29 00:38:18;;;;;;;7.40;4.43;;;17.20;17.30;;;;;;5054714;28;20466;-72
2023/06/29 00:40:44;;;;;;;10.40;5.00;;;17.20;17.20;;;;;;5059819;28;20940;-72
2023/06/29 00:43:11;;;;;;;9.33;5.00;;;17.20;17.20;;;;;;5052583;28;20489;-72
2023/06/29 00:45:38;;;;;;;8.40;4.20;;;17.20;17.50;;;;;;5058026;28;20869;-72
2023/06/29 00:48:05;;;;;;;7.93;4.60;;;17.10;17.80;;;;;;5050519;28;20462;-73
2023/06/29 00:50:32;;;;;;;7.97;4.47;;;17.10;18.00;;;;;;5055345;28;20458;-73
2023/06/29 00:52:59;;;;;;;8.53;5.73;;;17.10;18.00;;;;;;5048664;28;20491;-73
2023/06/29 00:55:28;;;;;;;9.50;4.60;;;17.00;18.10;;;;;;5052385;28;20454;-73
2023/06/29 00:57:55;;;;;;;6.60;4.47;;;17.10;18.20;;;;;;5054628;28;20463;-72
2023/06/29 01:00:21;;;;;;;9.10;4.70;;;17.10;18.20;;;;;;5051212;28;20914;-72
2023/06/29 01:02:49;;;;;;;9.77;5.67;;;17.00;18.20;;;;;;5053112;28;20487;-72
2023/06/29 01:05:17;;;;;;;8.60;5.60;;;17.00;18.20;;;;;;5049203;28;20497;-72
2023/06/29 01:07:50;;;;;;;8.77;6.17;;;16.90;18.90;;;;;;5057633;28;20744;-72
2023/06/29 01:10:21;;;;;;;9.87;5.87;;;16.80;18.50;;;;;;5048763;28;20485;-72
2023/06/29 01:12:50;;;;;;;11.30;6.10;;;16.70;18.60;;;;;;5049274;28;20489;-72
2023/06/29 01:15:17;;;;;;;9.70;6.10;;;16.70;18.50;;;;;;5054404;28;20453;-73
2023/06/29 01:17:47;;;;;;;9.67;5.67;;;16.60;18.50;;;;;;5054735;28;20553;-72
2023/06/29 01:20:16;;;;;;;8.73;5.40;;;16.60;18.60;;;;;;5049979;28;20505;-72
2023/06/29 01:22:56;;;;;;;7.57;4.73;;;16.60;18.90;;;;;;5050748;28;20486;-72
2023/06/29 01:25:25;;;;;;;8.43;6.23;;;16.60;18.90;;;;;;5049546;28;21153;-72
2023/06/29 01:27:52;;;;;;;9.03;5.63;;;16.50;18.90;;;;;;5052530;28;20462;-72
2023/06/29 01:30:18;;;;;;;12.17;5.67;;;16.50;19.10;;;;;;5055810;28;20482;-72
2023/06/29 01:32:45;;;;;;;9.77;6.57;;;16.50;19.30;;;;;;5047879;28;20486;-72
2023/06/29 01:35:12;;;;;;;9.30;6.60;;;16.40;19.40;;;;;;5047876;28;20504;-72
2023/06/29 01:37:46;;;;;;;13.10;6.47;;;16.40;19.50;;;;;;5049937;28;20462;-72
2023/06/29 01:40:17;;;;;;;8.23;6.40;;;16.40;19.60;;;;;;5051578;28;20458;-72
2023/06/29 01:42:46;;;;;;;15.93;7.07;;;16.40;19.70;;;;;;5050571;28;20493;-72
2023/06/29 01:45:14;;;;;;;8.03;6.13;;;16.30;19.80;;;;;;5042825;28;20560;-72
2023/06/29 01:47:41;;;;;;;9.93;5.93;;;16.30;19.80;;;;;;5047053;28;20465;-72
2023/06/29 01:50:09;;;;;;;8.67;5.90;;;16.20;19.80;;;;;;5051698;28;20496;-72
2023/06/29 01:52:36;;;;;;;8.50;6.10;;;16.20;19.80;;;;;;5055640;28;20490;-72
2023/06/29 01:55:03;;;;;;;10.23;5.63;;;16.20;19.80;;;;;;5051871;28;20466;-72
2023/06/29 01:57:30;;;;;;;11.20;5.20;;;16.10;19.80;;;;;;5058079;28;20473;-72
2023/06/29 01:59:58;;;;;;;10.50;6.13;;;16.10;19.90;;;;;;5048392;28;20459;-72
2023/06/29 02:02:25;;;;;;;11.53;6.10;;;16.00;20.00;;;;;;5054250;28;20465;-71
2023/06/29 02:04:52;;;;;;;9.70;6.43;;;16.00;20.20;;;;;;5049374;28;20492;-71
2023/06/29 02:07:18;;;;;;;9.13;7.13;;;16.00;20.30;;;;;;5050380;28;20466;-72
2023/06/29 02:09:45;;;;;;;11.20;7.10;;;16.00;21.20;;;;;;5045715;28;20466;-72
2023/06/29 02:12:12;;;;;;;8.47;5.93;;;15.90;21.30;;;;;;5055689;28;20449;-72
2023/06/29 02:14:39;;;;;;;9.10;6.73;;;15.90;20.90;;;;;;5047762;28;20493;-72
2023/06/29 02:17:07;;;;;;;10.60;6.80;;;16.00;20.90;;;;;;5049701;28;20462;-72
2023/06/29 02:19:34;;;;;;;10.40;7.30;;;16.00;21.10;;;;;;5053214;28;20470;-72
2023/06/29 02:22:01;;;;;;;10.73;7.10;;;16.00;20.80;;;;;;5050459;28;22659;-72
2023/06/29 02:24:28;;;;;;;10.70;7.40;;;16.00;20.90;;;;;;5045008;28;20486;-72
2023/06/29 02:26:55;;;;;;;9.97;6.57;;;16.00;21.00;;;;;;5040821;28;20467;-72
2023/06/29 02:29:21;;;;;;;9.00;6.63;;;15.90;21.20;;;;;;5052671;28;20469;-71
2023/06/29 02:31:48;;;;;;;10.90;6.87;;;15.90;21.40;;;;;;5048040;28;20480;-71
2023/06/29 02:34:16;;;;;;;9.30;6.30;;;15.90;21.30;;;;;;5049968;28;20478;-71
2023/06/29 02:36:43;;;;;;;10.00;7.10;;;15.80;21.60;;;;;;5043733;28;20463;-72
2023/06/29 02:39:10;;;;;;;11.40;6.10;;;15.80;21.40;;;;;;5051043;28;21181;-72
2023/06/29 02:41:36;;;;;;;9.70;5.93;;;15.70;21.80;;;;;;5049552;28;20899;-71
2023/06/29 02:44:03;;;;;;;9.97;6.73;;;15.70;21.70;;;;;;5041092;28;20490;-71
2023/06/29 02:46:30;;;;;;;11.10;7.20;;;15.70;21.80;;;;;;5048166;28;20548;-71
2023/06/29 02:48:57;;;;;;;10.17;6.27;;;15.60;21.80;;;;;;5051072;28;20454;-71
2023/06/29 02:51:25;;;;;;;11.17;6.80;;;15.60;22.10;;;;;;5041380;28;20471;-71
2023/06/29 02:53:51;;;;;;;11.43;7.07;;;15.60;22.20;;;;;;5045071;28;20474;-72
2023/06/29 02:56:18;;;;;;;9.63;6.73;;;15.50;22.10;;;;;;5051353;28;20466;-72
2023/06/29 02:58:45;;;;;;;12.20;7.97;;;15.60;22.00;;;;;;5055671;28;20473;-72
2023/06/29 03:01:12;;;;;;;12.70;7.30;;;15.60;22.10;;;;;;5056354;28;20470;-72
2023/06/29 03:03:38;;;;;;;9.93;7.50;;;15.50;22.50;;;;;;5052032;28;20478;-72
2023/06/29 03:06:05;;;;;;;9.33;7.13;;;15.40;22.60;;;;;;5047281;28;20489;-72
2023/06/29 03:08:33;;;;;;;10.93;7.40;;;15.40;22.60;;;;;;5050699;28;20465;-72
2023/06/29 03:11:00;;;;;;;11.90;8.57;;;15.50;22.50;;;;;;5061225;28;20466;-72
2023/06/29 03:13:26;;;;;;;9.50;7.03;;;15.40;22.90;;;;;;5048653;28;20481;-72
2023/06/29 03:15:56;;;;;;;8.03;6.00;;;15.40;23.00;;;;;;5051596;28;20461;-72
2023/06/29 03:18:23;;;;;;;11.80;8.47;;;15.40;22.90;;;;;;5053635;28;20458;-72
2023/06/29 03:20:49;;;;;;;9.80;6.80;;;15.30;23.20;;;;;;5053253;28;20489;-72
2023/06/29 03:23:16;;;;;;;9.50;6.33;;;15.30;23.30;;;;;;5053536;28;20493;-71
2023/06/29 03:25:44;;;;;;;13.47;8.37;;;15.40;23.10;;;;;;5051763;28;20497;-72
2023/06/29 03:28:11;;;;;;;10.63;6.93;;;15.40;23.00;;;;;;5046093;28;20465;-72
2023/06/29 03:30:38;;;;;;;16.83;7.77;;;15.40;23.10;;;;;;5045291;28;20470;-72
2023/06/29 03:33:05;;;;;;;12.53;7.77;;;15.40;23.00;;;;;;5053709;28;22032;-72
2023/06/29 03:35:31;;;;;;;10.07;7.40;;;15.40;23.10;;;;;;5047536;28;20493;-72
2023/06/29 03:37:58;;;;;;;8.07;6.67;;;15.40;23.10;;;;;;5049539;28;21096;-72
2023/06/29 03:40:25;;;;;;;9.07;6.80;;;15.30;23.20;;;;;;5056376;28;20461;-71
2023/06/29 03:42:53;;;;;;;10.47;7.37;;;15.30;23.10;;;;;;5053635;28;20569;-72
2023/06/29 03:45:19;;;;;;;10.20;7.30;;;15.30;23.20;;;;;;5052360;28;20485;-72
2023/06/29 03:47:46;;;;;;;30.83;9.53;;;15.30;23.40;;;;;;5051564;28;21040;-72
2023/06/29 03:50:13;;;;;;;48.77;12.30;;;15.30;23.30;;;;;;5054131;28;20462;-72
2023/06/29 03:52:39;;;;;;;26.93;10.23;;;15.40;23.30;;;;;;5050257;28;20477;-72
2023/06/29 03:55:08;;;;;;;26.80;10.40;;;15.40;23.40;;;;;;5051166;28;20473;-72
2023/06/29 03:57:34;;;;;;;16.80;8.30;;;15.40;23.30;;;;;;5054226;28;20489;-73
2023/06/29 04:00:03;;;;;;;17.97;8.27;;;15.40;23.30;;;;;;5051098;28;20867;-72
2023/06/29 04:02:30;;;;;;;10.87;6.97;;;15.50;23.50;;;;;;5052440;28;20482;-73
2023/06/29 04:04:57;;;;;;;11.80;6.67;;;15.50;23.50;;;;;;5054460;28;20830;-72
2023/06/29 04:07:23;;;;;;;10.20;7.10;;;15.50;23.50;;;;;;5045426;28;20485;-72
2023/06/29 04:09:50;;;;;;;9.13;6.70;;;15.60;23.40;;;;;;5042695;28;20761;-72
2023/06/29 04:12:17;;;;;;;11.67;7.33;;;15.60;23.40;;;;;;5051067;28;20505;-72
2023/06/29 04:14:45;;;;;;;17.83;8.97;;;15.50;23.40;;;;;;5043450;28;20489;-73
2023/06/29 04:17:14;;;;;;;16.47;8.70;;;15.50;23.60;;;;;;5043341;28;20471;-75
2023/06/29 04:19:40;;;;;;;24.07;8.20;;;15.50;23.80;;;;;;5048024;28;20837;-66
2023/06/29 04:22:07;;;;;;;17.23;7.33;;;15.50;23.80;;;;;;5044272;28;20977;-68
2023/06/29 04:24:34;;;;;;;13.23;7.43;;;15.60;24.50;;;;;;5044979;28;20921;-68
2023/06/29 04:27:01;;;;;;;10.60;8.03;;;15.60;24.60;;;;;;5046735;28;20478;-68
2023/06/29 04:29:28;;;;;;;16.50;7.83;;;15.60;25.10;;;;;;5048371;28;21077;-75
2023/06/29 04:31:54;;;;;;;10.20;8.03;;;15.70;25.40;;;;;;5043757;28;20474;-72
2023/06/29 04:34:23;;;;;;;9.90;7.00;;;15.80;25.90;;;;;;5049390;28;20877;-72
2023/06/29 04:36:50;;;;;;;9.93;6.30;;;16.70;25.80;;;;;;5044159;28;20469;-72
2023/06/29 04:39:17;;;;;;;14.13;6.80;;;18.40;21.30;;;;;;5061305;22;20576;-63
2023/06/29 04:41:46;;;;;;;9.80;6.03;;;20.10;17.00;;;;;;5065894;28;20468;-64
2023/06/29 04:44:13;;;;;;;8.50;5.87;;;21.60;13.30;;;;;;5049753;28;21049;-64
2023/06/29 04:46:40;;;;;;;9.67;5.20;;;22.80;10.60;;;;;;5045736;28;20470;-64
2023/06/29 04:49:09;;;;;;;9.70;5.23;;;23.90;8.20;;;;;;5046620;28;20462;-64
2023/06/29 04:51:38;;;;;;;12.67;6.40;;;24.90;6.20;;;;;;5045044;28;20466;-64
2023/06/29 04:54:05;;;;;;;8.33;5.10;;;25.80;3.60;;;;;;5044570;28;20481;-66
2023/06/29 04:56:32;;;;;;;20.23;6.27;;;26.60;2.40;;;;;;5042343;28;20466;-64
2023/06/29 04:58:59;;;;;;;11.73;6.40;;;27.00;1.00;;;;;;5040077;28;20466;-63
2023/06/29 05:01:26;;;;;;;10.47;6.00;;;26.30;1.30;;;;;;5042076;28;20481;-64
2023/06/29 05:03:52;;;;;;;7.80;5.20;;;26.40;1.70;;;;;;5041574;28;20520;-64
2023/06/29 05:06:20;;;;;;;8.03;5.80;;;27.40;1.00;;;;;;5048824;28;20493;-64
2023/06/29 05:08:48;;;;;;;8.80;5.23;;;28.40;1.00;;;;;;5064589;28;20438;-64
2023/06/29 05:11:14;;;;;;;11.37;5.53;;;29.50;1.00;;;;;;5068641;28;20468;-65
2023/06/29 05:13:41;;;;;;;10.10;5.70;;;30.40;1.00;;;;;;5049543;28;20486;-64
2023/06/29 05:16:08;;;;;;;8.13;4.50;;;31.20;1.00;;;;;;5044590;28;20464;-64
2023/06/29 05:18:36;;;;;;;7.50;4.50;;;31.90;1.00;;;;;;5045248;28;20467;-64
2023/06/29 05:21:03;;;;;;;9.17;5.00;;;32.50;1.00;;;;;;5045046;28;20532;-64
2023/06/29 05:23:30;;;;;;;10.10;4.97;;;33.00;1.00;;;;;;5051467;28;20486;-64
2023/06/29 05:25:58;;;;;;;7.80;5.23;;;33.40;1.00;;;;;;5050356;28;20473;-65
2023/06/29 05:28:25;;;;;;;8.47;4.90;;;33.70;1.00;;;;;;5046381;28;20535;-65
2023/06/29 05:30:51;;;;;;;11.70;5.53;;;34.30;1.00;;;;;;5044047;28;21004;-65
2023/06/29 05:33:18;;;;;;;10.47;6.10;;;34.70;1.00;;;;;;5036823;28;20489;-64
2023/06/29 05:35:45;;;;;;;7.50;4.60;;;35.30;1.00;;;;;;5037007;28;21021;-64
2023/06/29 05:38:12;;;;;;;9.47;5.27;;;35.90;1.00;;;;;;5040954;28;21468;-65
2023/06/29 05:40:38;;;;;;;9.40;5.40;;;36.60;1.00;;;;;;5043105;28;20466;-64
2023/06/29 05:43:07;;;;;;;10.03;4.73;;;37.40;1.00;;;;;;5056048;28;20494;-64
2023/06/29 05:45:33;;;;;;;9.30;4.80;;;37.90;1.00;;;;;;5046353;28;20505;-65
2023/06/29 05:48:00;;;;;;;8.67;5.10;;;38.40;1.00;;;;;;5044898;28;20605;-65
2023/06/29 05:50:27;;;;;;;8.00;5.33;;;39.00;1.00;;;;;;5043428;28;20458;-63
2023/06/29 05:52:54;;;;;;;9.77;5.80;;;39.50;1.00;;;;;;5040916;28;20488;-64
2023/06/29 05:55:20;;;;;;;8.10;4.50;;;40.10;1.00;;;;;;5040234;28;20470;-64
2023/06/29 05:57:48;;;;;;;7.07;4.67;;;40.50;1.00;;;;;;5042876;28;21014;-65
2023/06/29 06:00:18;;;;;;;7.90;4.30;;;40.90;1.00;;;;;;5040270;28;20461;-63
2023/06/29 06:02:44;;;;;;;18.70;4.87;;;41.20;1.00;;;;;;5041990;28;20898;-63
2023/06/29 06:05:11;;;;;;;7.43;4.70;;;41.70;1.00;;;;;;5044966;28;20548;-63
2023/06/29 06:07:39;;;;;;;7.30;4.23;;;42.10;1.00;;;;;;5041748;28;20461;-64
2023/06/29 06:10:06;;;;;;;9.00;5.07;;;42.80;1.00;;;;;;5043145;28;20466;-64
2023/06/29 06:12:33;;;;;;;7.63;4.83;;;43.60;1.00;;;;;;5045117;28;20463;-64
2023/06/29 06:15:00;;;;;;;6.13;3.90;;;44.10;1.00;;;;;;5041183;28;20459;-64
2023/06/29 06:17:28;;;;;;;6.97;4.50;;;44.70;1.00;;;;;;5041821;28;20458;-65
2023/06/29 06:19:55;;;;;;;7.33;4.53;;;45.10;1.00;;;;;;5039959;28;21307;-65
2023/06/29 06:22:22;;;;;;;8.40;4.23;;;45.30;1.00;;;;;;5037720;28;20548;-65
2023/06/29 06:24:48;;;;;;;5.07;3.43;;;45.80;1.00;;;;;;5042017;28;20863;-66
2023/06/29 06:27:15;;;;;;;5.57;3.80;;;46.30;1.00;;;;;;5041815;28;20462;-65
2023/06/29 06:29:43;;;;;;;6.90;4.40;;;46.60;1.00;;;;;;5039960;28;20465;-65
2023/06/29 06:32:10;;;;;;;5.60;3.27;;;46.60;1.00;;;;;;5042642;28;20474;-65
2023/06/29 06:34:38;;;;;;;6.60;3.80;;;46.80;1.00;;;;;;5042754;28;20528;-64
2023/06/29 06:37:06;;;;;;;5.70;4.10;;;47.40;1.00;;;;;;5043803;28;20835;-65
2023/06/29 06:39:33;;;;;;;5.63;4.13;;;47.90;1.00;;;;;;5042600;28;20458;-65
2023/06/29 06:42:00;;;;;;;6.20;4.20;;;48.30;1.00;;;;;;5045223;28;20504;-66
2023/06/29 06:44:27;;;;;;;7.10;4.23;;;48.50;1.00;;;;;;5046651;28;20864;-64
2023/06/29 06:46:54;;;;;;;5.73;4.30;;;48.40;1.00;;;;;;5045265;28;20501;-65
2023/06/29 06:49:20;;;;;;;6.70;3.90;;;48.00;1.00;;;;;;5047991;28;20840;-67
2023/06/29 06:51:49;;;;;;;6.90;3.87;;;47.90;1.00;;;;;;5045615;28;20466;-66
2023/06/29 06:54:15;;;;;;;6.73;4.30;;;48.20;1.00;;;;;;5043656;28;20505;-65
2023/06/29 06:56:42;;;;;;;9.03;4.23;;;48.80;1.00;;;;;;5046592;28;20493;-66
2023/06/29 06:59:09;;;;;;;5.73;3.87;;;49.10;1.00;;;;;;5047003;28;20465;-67
2023/06/29 07:01:40;;;;;;;7.00;3.83;;;49.30;1.00;;;;;;5043772;28;20486;-67
2023/06/29 07:04:07;;;;;;;9.23;4.03;;;49.30;1.00;;;;;;5039478;28;20490;-68
2023/06/29 07:06:34;;;;;;;8.60;3.60;;;49.80;1.00;;;;;;5049543;28;21057;-67
2023/06/29 07:09:03;;;;;;;5.93;3.37;;;50.30;1.00;;;;;;5046772;28;20466;-67
2023/06/29 07:11:29;;;;;;;5.60;2.97;;;50.90;1.00;;;;;;5047380;28;20461;-66
2023/06/29 07:13:56;;;;;;;5.27;2.70;;;51.40;1.00;;;;;;5044690;28;20474;-67
2023/06/29 07:16:24;;;;;;;6.17;2.87;;;51.80;1.00;;;;;;5044623;28;20472;-67
2023/06/29 07:19:09;;;;;;;6.27;3.43;;;52.10;1.00;;;;;;5047527;28;20446;-67
2023/06/29 07:21:36;;;;;;;7.03;3.10;;;52.40;1.00;;;;;;5048730;28;20453;-67
2023/06/29 07:24:04;;;;;;;5.63;2.73;;;52.90;1.00;;;;;;5046546;28;20481;-67
2023/06/29 07:26:31;;;;;;;7.83;3.10;;;53.20;1.00;;;;;;5046167;28;20485;-67
2023/06/29 07:28:58;;;;;;;5.53;3.03;;;53.20;1.00;;;;;;5046183;28;20466;-67
2023/06/29 07:31:25;;;;;;;4.90;2.73;;;53.30;1.00;;;;;;5046633;28;20484;-67
2023/06/29 07:33:53;;;;;;;6.97;3.00;;;53.30;1.00;;;;;;5046064;28;20505;-67
2023/06/29 07:36:19;;;;;;;5.77;3.10;;;53.40;1.00;;;;;;5048852;28;20489;-67
2023/06/29 07:38:46;;;;;;;5.10;2.60;;;53.90;1.00;;;;;;5047796;28;20962;-67
2023/06/29 07:41:15;;;;;;;8.20;3.03;;;54.40;1.00;;;;;;5045999;28;20849;-66
2023/06/29 07:43:42;;;;;;;7.23;2.90;;;54.40;1.00;;;;;;5043084;28;20503;-66
2023/06/29 07:46:09;;;;;;;4.97;2.60;;;54.10;1.00;;;;;;5046765;28;20850;-65
2023/06/29 07:48:36;;;;;;;4.40;2.50;;;54.20;1.00;;;;;;5046715;28;20457;-66
2023/06/29 07:51:03;;;;;;;8.43;2.73;;;54.70;1.00;;;;;;5045533;28;21025;-65
2023/06/29 07:53:31;;;;;;;6.40;2.30;;;55.10;1.00;;;;;;5047993;28;20485;-66
2023/06/29 07:55:59;;;;;;;4.50;2.40;;;55.60;1.00;;;;;;5048798;28;20461;-66
2023/06/29 07:58:27;;;;;;;4.37;2.37;;;55.80;1.00;;;;;;5044218;28;20519;-66
2023/06/29 08:00:55;;;;;;;5.30;2.83;;;56.00;1.00;;;;;;5042609;28;20474;-66
2023/06/29 08:03:21;;;;;;;4.73;2.07;;;56.30;1.00;;;;;;5045243;28;20564;-65
2023/06/29 08:05:49;;;;;;;7.87;3.07;;;56.40;1.00;;;;;;5044001;28;20481;-65
2023/06/29 08:08:15;;;;;;;6.93;2.47;;;56.60;1.00;;;;;;5044766;28;20544;-65
2023/06/29 08:10:42;;;;;;;4.20;2.00;;;57.00;1.00;;;;;;5049016;28;20954;-66
2023/06/29 08:13:09;;;;;;;6.70;2.43;;;57.20;1.00;;;;;;5042932;28;20226;-65
2023/06/29 08:15:37;;;;;;;5.88;2.70;;;57.60;1.00;;;;;;5039841;28;20202;-65
2023/06/29 08:18:04;;;;;;;5.53;2.60;;;57.70;1.00;;;;;;5045393;28;20230;-65
2023/06/29 08:20:30;;;;;;;6.82;2.33;;;57.90;1.00;;;;;;5044050;28;20214;-65
2023/06/29 08:22:57;;;;;;;7.65;2.60;;;58.00;1.00;;;;;;5045448;28;20234;-65
2023/06/29 08:25:24;;;;;;;4.85;2.42;;;58.40;1.00;;;;;;5043841;28;20205;-66
2023/06/29 08:27:51;;;;;;;5.03;2.10;;;58.30;1.00;;;;;;5044888;28;20227;-65
2023/06/29 08:30:17;;;;;;;9.38;2.53;;;58.40;1.00;;;;;;5041096;28;20203;-65
2023/06/29 08:32:48;;;;;;;6.82;2.33;;;58.70;1.00;;;;;;5059871;28;20227;-65
2023/06/29 08:35:14;;;;;;;5.10;2.15;;;58.90;1.00;;;;;;5057087;28;20259;-66
2023/06/29 08:37:41;;;;;;;5.40;2.00;;;59.00;1.00;;;;;;5034208;28;20207;-66
2023/06/29 08:40:10;;;;;;;4.03;2.00;;;58.80;1.00;;;;;;5043394;28;20211;-66
2023/06/29 08:42:38;;;;;;;5.35;2.00;;;58.10;1.00;;;;;;5036054;28;20195;-67
2023/06/29 08:45:06;;;;;;;5.45;1.75;;;57.70;1.00;;;;;;5042139;28;20695;-67
2023/06/29 08:47:33;;;;;;;4.40;2.30;;;58.10;1.00;;;;;;5044633;28;20269;-66
2023/06/29 08:50:04;;;;;;;4.13;1.98;;;58.40;1.00;;;;;;5040495;28;20196;-66
2023/06/29 08:52:34;;;;;;;5.15;2.17;;;58.40;1.00;;;;;;5042675;28;20237;-67
2023/06/29 08:55:02;;;;;;;7.93;1.98;;;57.40;1.00;;;;;;5045257;28;20207;-67
2023/06/29 08:57:31;;;;;;;4.80;1.95;;;57.20;1.00;;;;;;5046247;28;20265;-66
2023/06/29 08:59:59;;;;;;;5.00;2.28;;;57.20;1.00;;;;;;5044601;28;20193;-67
2023/06/29 09:02:26;;;;;;;3.53;1.70;;;57.50;1.00;;;;;;5042458;28;20365;-67
2023/06/29 09:04:52;;;;;;;4.32;1.60;;;57.60;1.00;;;;;;5043905;28;20211;-66
2023/06/29 09:07:20;;;;;;;3.50;1.48;;;58.00;1.00;;;;;;5041429;28;20230;-67
2023/06/29 09:09:47;;;;;;;4.78;1.55;;;58.00;1.00;;;;;;5044410;28;20226;-67
2023/06/29 09:12:14;;;;;;;4.25;1.83;;;57.50;1.00;;;;;;5042745;28;20208;-66
2023/06/29 09:14:44;;;;;;;5.25;1.95;;;57.20;1.00;;;;;;5041501;28;20219;-66
2023/06/29 09:17:14;;;;;;;4.95;1.58;;;57.40;1.00;;;;;;5043538;28;20203;-67
2023/06/29 09:19:43;;;;;;;3.87;1.50;;;57.20;1.00;;;;;;5045401;28;20540;-67
2023/06/29 09:22:10;;;;;;;5.00;1.83;;;56.90;1.00;;;;;;5040607;28;20972;-66
2023/06/29 09:24:41;;;;;;;4.67;1.87;;;55.60;1.00;;;;;;5042012;28;20573;-65
2023/06/29 09:27:10;;;;;;;7.20;1.90;;;52.90;1.00;;;;;;5037455;28;20474;-66
2023/06/29 09:29:37;;;;;;;4.53;1.57;;;50.30;1.00;;;;;;5039990;28;20464;-66
2023/06/29 09:32:05;;;;;;;4.50;1.90;;;48.30;1.00;;;;;;5037740;28;20561;-66
2023/06/29 09:34:32;;;;;;;5.70;2.00;;;46.40;1.00;;;;;;5040903;28;20481;-66
2023/06/29 09:36:58;;;;;;;9.27;2.00;;;44.60;1.00;;;;;;5039830;28;20489;-66
2023/06/29 09:39:26;;;;;;;6.43;1.50;;;43.10;1.00;;;;;;5039696;28;20469;-67
2023/06/29 09:41:56;;;;;;;4.90;2.00;;;42.00;1.00;;;;;;5037024;28;20466;-66
2023/06/29 09:44:24;;;;;;;5.10;1.90;;;41.00;1.00;;;;;;5038561;28;20583;-66
2023/06/29 09:46:54;;;;;;;6.20;2.07;;;39.90;1.00;;;;;;5042142;28;20486;-66
2023/06/29 09:49:21;;;;;;;7.70;2.17;;;38.90;1.00;;;;;;5039038;28;20522;-66
2023/06/29 09:51:49;;;;;;;5.30;1.97;;;38.20;1.00;;;;;;5037789;28;20462;-66
2023/06/29 09:54:16;;;;;;;5.70;2.27;;;37.70;1.00;;;;;;5037946;28;20477;-65
2023/06/29 09:56:44;;;;;;;4.80;1.90;;;37.20;1.00;;;;;;5042970;28;20461;-65
2023/06/29 09:59:12;;;;;;;4.73;1.47;;;36.40;1.00;;;;;;5043727;28;20462;-66
2023/06/29 10:01:40;;;;;;;5.10;2.17;;;35.70;1.00;;;;;;5043235;28;20476;-68
2023/06/29 10:04:07;;;;;;;5.17;1.93;;;35.20;1.00;;;;;;5035436;28;20470;-68
2023/06/29 10:06:39;;;;;;;6.30;1.90;;;34.80;1.00;;;;;;5043025;28;20632;-69
2023/06/29 10:09:06;;;;;;;5.27;2.07;;;34.30;1.00;;;;;;5044390;28;20469;-73
2023/06/29 10:11:36;;;;;;;5.20;2.37;;;33.80;1.00;;;;;;5044534;28;20535;-70
2023/06/29 10:14:04;;;;;;;4.43;1.70;;;33.40;1.00;;;;;;5047148;28;20485;-69
2023/06/29 10:16:35;;;;;;;5.10;1.93;;;33.10;1.00;;;;;;5045204;28;20465;-68
2023/06/29 10:19:10;;;;;;;4.50;1.73;;;33.10;1.00;;;;;;5040939;28;20493;-67
2023/06/29 10:21:37;;;;;;;6.17;1.87;;;32.90;1.00;;;;;;5043010;28;20475;-68
2023/06/29 10:24:05;;;;;;;5.80;2.43;;;32.80;1.00;;;;;;5041012;28;20530;-68
2023/06/29 10:26:33;;;;;;;6.07;2.13;;;32.80;1.00;;;;;;5047484;28;20489;-69
2023/06/29 10:28:59;;;;;;;4.23;1.80;;;32.70;1.00;;;;;;5048546;28;20474;-69
2023/06/29 10:31:46;;;;;;;5.87;2.07;;;32.70;1.00;;;;;;5044682;28;20485;-69
2023/06/29 10:34:14;;;;;;;4.90;1.70;;;32.50;1.00;;;;;;5046610;28;20509;-68
2023/06/29 10:36:49;;;;;;;6.00;2.00;;;32.20;1.00;;;;;;5046888;28;22338;-69
2023/06/29 10:39:47;;;;;;;6.77;2.40;;;32.10;1.00;;;;;;5043990;28;20517;-69
2023/06/29 10:42:54;;;;;;;5.47;2.20;;;32.10;1.00;;;;;;4978977;28;21086;-69
2023/06/29 10:45:35;;;;;;;7.93;1.90;;;32.00;1.00;;;;;;5045307;28;20537;-68
2023/06/29 10:48:06;;;;;;;5.33;1.90;;;32.20;1.00;;;;;;5050422;28;20492;-68
2023/06/29 10:50:36;;;;;;;6.17;1.93;;;32.30;1.00;;;;;;5050109;28;20962;-68
2023/06/29 10:53:05;;;;;;;4.20;1.80;;;32.60;1.00;;;;;;5049877;28;20474;-69
2023/06/29 10:55:46;;;;;;;4.20;1.60;;;32.80;1.00;;;;;;5046002;28;20501;-69
2023/06/29 10:58:15;;;;;;;4.93;1.60;;;33.10;1.00;;;;;;5049738;28;20456;-68
2023/06/29 11:00:43;;;;;;;4.53;1.77;;;33.30;1.00;;;;;;5040317;28;20552;-69
2023/06/29 11:03:11;;;;;;;5.10;1.90;;;33.40;1.00;;;;;;5046564;28;20482;-68
2023/06/29 11:05:37;;;;;;;5.00;1.93;;;33.40;1.00;;;;;;5043529;28;20846;-70
2023/06/29 11:08:06;;;;;;;4.23;1.80;;;33.40;1.00;;;;;;5045334;28;21050;-70
2023/06/29 11:10:32;;;;;;;4.47;1.97;;;33.60;1.00;;;;;;5043751;28;20527;-68
2023/06/29 11:12:59;;;;;;;5.33;1.70;;;33.60;1.00;;;;;;5046400;28;20477;-70
2023/06/29 11:15:28;;;;;;;4.30;1.50;;;33.90;1.00;;;;;;5045562;28;20459;-66
2023/06/29 11:17:57;;;;;;;6.00;1.77;;;34.00;1.00;;;;;;5043664;28;20855;-66
2023/06/29 11:20:29;;;;;;;6.00;1.80;;;34.00;1.00;;;;;;5042412;28;20463;-66
2023/06/29 11:22:57;;;;;;;5.90;1.60;;;34.10;1.00;;;;;;5050102;28;20516;-65
2023/06/29 11:25:25;;;;;;;4.73;1.80;;;34.10;1.00;;;;;;5044604;28;20490;-66
2023/06/29 11:27:53;;;;;;;4.90;2.10;;;34.00;1.00;;;;;;5044194;28;20967;-66
2023/06/29 11:30:20;;;;;;;5.43;1.97;;;33.90;1.00;;;;;;5048609;28;20466;-67
2023/06/29 11:32:49;;;;;;;4.43;1.60;;;33.70;1.00;;;;;;5046491;28;20489;-64
2023/06/29 11:35:21;;;;;;;9.23;2.10;;;33.70;1.00;;;;;;5047274;28;20901;-64
2023/06/29 11:37:49;;;;;;;5.87;1.33;;;33.60;1.00;;;;;;5045472;28;20466;-65
2023/06/29 11:40:18;;;;;;;4.50;1.80;;;33.40;1.00;;;;;;5046784;28;20888;-66
2023/06/29 11:42:45;;;;;;;6.07;1.90;;;33.20;1.00;;;;;;5048109;28;20482;-66
2023/06/29 11:45:12;;;;;;;5.03;1.90;;;32.90;1.00;;;;;;5049169;28;20484;-65
2023/06/29 11:47:39;;;;;;;7.50;2.10;;;32.60;1.00;;;;;;5048094;28;21016;-65
2023/06/29 11:50:09;;;;;;;6.47;1.97;;;32.50;1.00;;;;;;5047502;28;20465;-65
2023/06/29 11:52:40;;;;;;;4.23;1.80;;;32.40;1.00;;;;;;5040853;28;21084;-65
2023/06/29 11:55:08;;;;;;;5.57;2.30;;;32.30;1.00;;;;;;5063463;28;20430;-65
2023/06/29 11:57:36;;;;;;;4.70;1.70;;;32.10;1.00;;;;;;5073122;28;20446;-64
2023/06/29 12:00:06;;;;;;;4.67;2.10;;;32.00;1.00;;;;;;5056530;28;20462;-64
2023/06/29 12:02:34;;;;;;;6.03;2.03;;;31.90;1.00;;;;;;5046622;28;20496;-64
2023/06/29 12:05:03;;;;;;;7.07;2.50;;;31.80;1.00;;;;;;5047818;28;20489;-65
2023/06/29 12:07:39;;;;;;;4.60;1.70;;;31.80;1.00;;;;;;5045827;28;20848;-64
2023/06/29 12:10:07;;;;;;;4.10;1.70;;;31.80;1.00;;;;;;5039769;28;20458;-65
2023/06/29 12:12:38;;;;;;;5.33;1.67;;;31.70;1.00;;;;;;5042786;28;20470;-64
2023/06/29 12:15:15;;;;;;;6.20;2.10;;;31.50;1.00;;;;;;5044827;28;20461;-64
2023/06/29 12:17:42;;;;;;;8.23;2.27;;;31.30;1.00;;;;;;5047959;28;20464;-64
2023/06/29 12:20:17;;;;;;;5.87;2.00;;;31.20;1.00;;;;;;5045620;28;20494;-65
2023/06/29 12:22:46;;;;;;;5.37;2.03;;;31.20;1.00;;;;;;5046682;28;20473;-65
2023/06/29 12:25:13;;;;;;;4.70;2.03;;;31.20;1.00;;;;;;5045751;28;20485;-65
2023/06/29 12:27:42;;;;;;;5.73;2.00;;;31.30;1.00;;;;;;5045818;28;20854;-65
2023/06/29 12:30:14;;;;;;;4.17;1.80;;;31.20;1.00;;;;;;5045187;28;20457;-65
2023/06/29 12:32:41;;;;;;;5.97;2.13;;;31.20;1.00;;;;;;5044523;28;20813;-65
2023/06/29 12:35:08;;;;;;;5.80;1.87;;;31.20;1.00;;;;;;5044615;28;21024;-65
2023/06/29 12:37:34;;;;;;;7.30;2.20;;;31.20;1.00;;;;;;5044423;28;20457;-66
2023/06/29 12:40:04;;;;;;;6.67;2.30;;;31.10;1.00;;;;;;5040704;28;20473;-65
2023/06/29 12:42:31;;;;;;;5.37;2.73;;;31.00;1.00;;;;;;5038724;28;20486;-65
2023/06/29 12:44:58;;;;;;;6.97;2.03;;;30.90;1.00;;;;;;5047501;28;20461;-64
2023/06/29 12:47:24;;;;;;;6.40;2.73;;;30.90;1.00;;;;;;5042697;28;20869;-65
2023/06/29 12:49:51;;;;;;;5.90;2.20;;;30.90;1.00;;;;;;5038328;28;20464;-64
2023/06/29 12:52:18;;;;;;;5.77;2.10;;;30.90;1.00;;;;;;5041838;28;20457;-66
2023/06/29 12:54:45;;;;;;;6.40;2.60;;;30.90;1.00;;;;;;5041733;28;20481;-66